Stockton, California
Current Conditions -  °F | °C
As of 4:55 PM on Friday 24 Oct 2014 (Local Time) from KSCK Reporting Station
Clear Clear  
Wind Chill: 79°   Ceiling: Unl
Heat Index: 79°   Visibility: 9mi
Dew Point: 53°   Wind: 6mph
Humidity: 40%   Direction: 250°WSW
Pressure: 29.85"   Gusts: NA
Location:  37.95°N, 121.29°W
Report Text: KSCK 242355Z 25005KT 9SM CLR 26/12 A2985 RMK AO2 SLP107 T02610117 10267 20156 56011
Loading
Personal Weather Stations






























Interactive Weather Map New forecast layout! Learn more

10-Day Weather Forecast

Advertisements
Track Severe Weather on mobile